Time,TemperatureF,DewpointF,PressureIn,WindDirection,WindDirectionDegrees,WindSpeedMPH,WindSpeedGustMPH,Humidity,HourlyPrecipIn,Conditions,Clouds,dailyrainin,SoftwareType,DateUTC
2013-09-19 00:06:00,48.7,45.0,30.09,NE,41,0.0,0.0,86,0.00,,,0.00,weatherlink.com 1.10,2013-09-19 04:06:00,
2013-09-19 00:21:00,48.1,44.0,30.09,NE,41,0.0,0.0,87,0.00,,,0.00,weatherlink.com 1.10,2013-09-19 04:21:00,
2013-09-19 00:51:00,47.5,44.0,30.09,NE,41,0.0,0.0,87,0.00,,,0.00,weatherlink.com 1.10,2013-09-19 04:51:00,
2013-09-19 01:06:00,47.0,43.0,30.09,NE,41,0.0,0.0,87,0.00,,,0.00,weatherlink.com 1.10,2013-09-19 05:06:00,
2013-09-19 01:21:00,46.5,43.0,30.09,NE,41,0.0,0.0,87,0.00,,,0.00,weatherlink.com 1.10,2013-09-19 05:21:00,
2013-09-19 01:36:00,46.1,43.0,30.09,NE,41,0.0,0.0,88,0.00,,,0.00,weatherlink.com 1.10,2013-09-19 05:36:00,
2013-09-19 01:51:00,45.7,42.0,30.09,NE,41,0.0,0.0,87,0.00,,,0.00,weatherlink.com 1.10,2013-09-19 05:51:00,
2013-09-19 02:06:00,45.2,42.0,30.09,NE,41,0.0,0.0,88,0.00,,,0.00,weatherlink.com 1.10,2013-09-19 06:06:00,
2013-09-19 02:21:00,44.8,42.0,30.08,NE,41,0.0,0.0,88,0.00,,,0.00,weatherlink.com 1.10,2013-09-19 06:21:00,
2013-09-19 02:36:00,44.3,41.0,30.08,NE,41,0.0,0.0,88,0.00,,,0.00,weatherlink.com 1.10,2013-09-19 06:36:00,
2013-09-19 02:51:00,44.3,41.0,30.08,NE,41,0.0,0.0,88,0.00,,,0.00,weatherlink.com 1.10,2013-09-19 06:51:00,
2013-09-19 03:06:00,43.8,41.0,30.08,NE,41,0.0,0.0,88,0.00,,,0.00,weatherlink.com 1.10,2013-09-19 07:06:00,
2013-09-19 03:21:00,43.3,40.0,30.07,NE,41,0.0,0.0,88,0.00,,,0.00,weatherlink.com 1.10,2013-09-19 07:21:00,
2013-09-19 03:36:00,43.0,40.0,30.08,NE,41,0.0,0.0,88,0.00,,,0.00,weatherlink.com 1.10,2013-09-19 07:36:00,
2013-09-19 03:51:00,42.8,40.0,30.08,NE,41,0.0,0.0,88,0.00,,,0.00,weatherlink.com 1.10,2013-09-19 07:51:00,
2013-09-19 04:06:00,42.2,39.0,30.08,NE,41,0.0,0.0,88,0.00,,,0.00,weatherlink.com 1.10,2013-09-19 08:06:00,
2013-09-19 04:21:00,42.0,39.0,30.08,NE,41,0.0,0.0,88,0.00,,,0.00,weatherlink.com 1.10,2013-09-19 08:21:00,
2013-09-19 04:36:00,42.0,39.0,30.08,NE,41,0.0,0.0,88,0.00,,,0.00,weatherlink.com 1.10,2013-09-19 08:36:00,
2013-09-19 04:51:00,41.7,38.0,30.08,NE,41,0.0,0.0,88,0.00,,,0.00,weatherlink.com 1.10,2013-09-19 08:51:00,
2013-09-19 05:06:00,41.3,38.0,30.08,NE,41,0.0,0.0,88,0.00,,,0.00,weatherlink.com 1.10,2013-09-19 09:06:00,
2013-09-19 05:21:00,41.0,38.0,30.08,NE,41,0.0,0.0,88,0.00,,,0.00,weatherlink.com 1.10,2013-09-19 09:21:00,
2013-09-19 05:37:00,40.8,38.0,30.08,NE,41,0.0,0.0,88,0.00,,,0.00,weatherlink.com 1.10,2013-09-19 09:37:00,
2013-09-19 05:52:00,40.6,38.0,30.08,NE,41,0.0,0.0,89,0.00,,,0.00,weatherlink.com 1.10,2013-09-19 09:52:00,
2013-09-19 06:07:00,40.5,38.0,30.09,NE,41,0.0,0.0,89,0.00,,,0.00,weatherlink.com 1.10,2013-09-19 10:07:00,
2013-09-19 06:22:00,40.4,38.0,30.09,NE,41,0.0,0.0,89,0.00,,,0.00,weatherlink.com 1.10,2013-09-19 10:22:00,
2013-09-19 06:37:00,40.3,37.0,30.10,NE,41,0.0,0.0,89,0.00,,,0.00,weatherlink.com 1.10,2013-09-19 10:37:00,
2013-09-19 06:52:00,40.2,37.0,30.10,NE,41,0.0,0.0,89,0.00,,,0.00,weatherlink.com 1.10,2013-09-19 10:52:00,
2013-09-19 07:07:00,40.3,37.0,30.10,NE,41,0.0,0.0,89,0.00,,,0.00,weatherlink.com 1.10,2013-09-19 11:07:00,
2013-09-19 07:22:00,40.5,38.0,30.11,NE,41,0.0,0.0,89,0.00,,,0.00,weatherlink.com 1.10,2013-09-19 11:22:00,
2013-09-19 07:37:00,40.8,38.0,30.11,NE,41,0.0,0.0,90,0.00,,,0.00,weatherlink.com 1.10,2013-09-19 11:37:00,
2013-09-19 07:52:00,41.5,39.0,30.11,NE,41,0.0,0.0,90,0.00,,,0.00,weatherlink.com 1.10,2013-09-19 11:52:00,
2013-09-19 08:07:00,42.3,40.0,30.11,NE,41,0.0,0.0,90,0.00,,,0.00,weatherlink.com 1.10,2013-09-19 12:07:00,
2013-09-19 08:22:00,43.2,41.0,30.11,NE,41,0.0,0.0,90,0.00,,,0.00,weatherlink.com 1.10,2013-09-19 12:22:00,
2013-09-19 08:37:00,44.7,42.0,30.11,NE,41,0.0,0.0,91,0.00,,,0.00,weatherlink.com 1.10,2013-09-19 12:37:00,
2013-09-19 08:52:00,46.1,44.0,30.11,NE,41,0.0,0.0,91,0.00,,,0.00,weatherlink.com 1.10,2013-09-19 12:52:00,
2013-09-19 09:07:00,48.0,46.0,30.11,NE,41,0.0,0.0,91,0.00,,,0.00,weatherlink.com 1.10,2013-09-19 13:07:00,
2013-09-19 09:22:00,49.9,47.0,30.11,NE,41,0.0,0.0,88,0.00,,,0.00,weatherlink.com 1.10,2013-09-19 13:22:00,
2013-09-19 09:37:00,51.7,48.0,30.11,NE,41,0.0,0.0,86,0.00,,,0.00,weatherlink.com 1.10,2013-09-19 13:37:00,
2013-09-19 09:52:00,53.7,49.0,30.11,NE,41,0.0,0.0,83,0.00,,,0.00,weatherlink.com 1.10,2013-09-19 13:52:00,
2013-09-19 10:07:00,55.4,50.0,30.11,NE,41,0.0,0.0,81,0.00,,,0.00,weatherlink.com 1.10,2013-09-19 14:07:00,
2013-09-19 10:22:00,57.6,51.0,30.10,NE,41,0.0,0.0,78,0.00,,,0.00,weatherlink.com 1.10,2013-09-19 14:22:00,
2013-09-19 10:37:00,59.2,52.0,30.10,West,264,0.0,2.0,76,0.00,,,0.00,weatherlink.com 1.10,2013-09-19 14:37:00,
2013-09-19 10:52:00,61.0,53.0,30.09,WSW,250,0.0,1.0,74,0.00,,,0.00,weatherlink.com 1.10,2013-09-19 14:52:00,
2013-09-19 11:07:00,62.4,55.0,30.09,NNW,328,0.0,2.0,76,0.00,,,0.00,weatherlink.com 1.10,2013-09-19 15:07:00,
2013-09-19 11:22:00,63.9,55.0,30.09,NNE,17,0.0,3.0,72,0.00,,,0.00,weatherlink.com 1.10,2013-09-19 15:22:00,
2013-09-19 11:37:00,64.7,55.0,30.09,NNE,30,0.0,2.0,70,0.00,,,0.00,weatherlink.com 1.10,2013-09-19 15:37:00,
2013-09-19 11:53:00,65.7,55.0,30.08,NNE,32,0.0,1.0,68,0.00,,,0.00,weatherlink.com 1.10,2013-09-19 15:53:00,
2013-09-19 12:08:00,66.6,55.0,30.08,NE,48,0.0,3.0,66,0.00,,,0.00,weatherlink.com 1.10,2013-09-19 16:08:00,
2013-09-19 12:23:00,68.0,55.0,30.07,NNE,30,0.0,1.0,64,0.00,,,0.00,weatherlink.com 1.10,2013-09-19 16:23:00,
2013-09-19 12:38:00,70.6,51.0,30.07,SW,236,1.0,5.0,51,0.00,,,0.00,weatherlink.com 1.10,2013-09-19 16:38:00,
2013-09-19 12:53:00,72.0,52.0,30.07,WSW,249,0.0,6.0,49,0.00,,,0.00,weatherlink.com 1.10,2013-09-19 16:53:00,
2013-09-19 13:08:00,72.6,51.0,30.06,West,259,3.0,5.0,46,0.00,,,0.00,weatherlink.com 1.10,2013-09-19 17:08:00,
2013-09-19 13:23:00,73.2,51.0,30.05,SSW,196,0.0,5.0,46,0.00,,,0.00,weatherlink.com 1.10,2013-09-19 17:23:00,
2013-09-19 13:38:00,74.1,51.0,30.04,SW,226,0.0,7.0,44,0.00,,,0.00,weatherlink.com 1.10,2013-09-19 17:38:00,
2013-09-19 13:53:00,74.2,51.0,30.04,SW,228,0.0,5.0,45,0.00,,,0.00,weatherlink.com 1.10,2013-09-19 17:53:00,
2013-09-19 14:08:00,74.9,53.0,30.03,SSW,208,3.0,5.0,46,0.00,,,0.00,weatherlink.com 1.10,2013-09-19 18:08:00,
2013-09-19 14:23:00,75.7,52.0,30.02,SSW,208,0.0,4.0,44,0.00,,,0.00,weatherlink.com 1.10,2013-09-19 18:23:00,
2013-09-19 14:38:00,76.6,52.0,30.02,West,273,0.0,4.0,43,0.00,,,0.00,weatherlink.com 1.10,2013-09-19 18:38:00,
2013-09-19 14:53:00,76.2,51.0,30.02,SSW,200,0.0,5.0,42,0.00,,,0.00,weatherlink.com 1.10,2013-09-19 18:53:00,
2013-09-19 15:08:00,76.1,53.0,30.02,SW,217,0.0,4.0,44,0.00,,,0.00,weatherlink.com 1.10,2013-09-19 19:08:00,
2013-09-19 15:38:00,75.7,55.0,30.00,SSW,194,0.0,3.0,48,0.00,,,0.00,weatherlink.com 1.10,2013-09-19 19:38:00,
2013-09-19 15:53:00,75.3,53.0,30.00,SW,221,0.0,2.0,46,0.00,,,0.00,weatherlink.com 1.10,2013-09-19 19:53:00,
2013-09-19 16:08:00,75.1,53.0,29.99,SW,223,0.0,4.0,46,0.00,,,0.00,weatherlink.com 1.10,2013-09-19 20:08:00,
2013-09-19 16:23:00,74.8,54.0,29.99,WSW,252,0.0,2.0,49,0.00,,,0.00,weatherlink.com 1.10,2013-09-19 20:23:00,
2013-09-19 16:38:00,74.4,54.0,29.99,SW,221,0.0,1.0,50,0.00,,,0.00,weatherlink.com 1.10,2013-09-19 20:38:00,
2013-09-19 16:53:00,73.3,52.0,29.99,SW,221,0.0,0.0,48,0.00,,,0.00,weatherlink.com 1.10,2013-09-19 20:53:00,
2013-09-19 17:08:00,74.0,53.0,29.99,SW,221,0.0,0.0,48,0.00,,,0.00,weatherlink.com 1.10,2013-09-19 21:08:00,
2013-09-19 17:23:00,73.7,55.0,29.99,SW,221,0.0,0.0,52,0.00,,,0.00,weatherlink.com 1.10,2013-09-19 21:23:00,
2013-09-19 17:38:00,72.2,55.0,29.99,SW,221,0.0,0.0,56,0.00,,,0.00,weatherlink.com 1.10,2013-09-19 21:38:00,
2013-09-19 17:53:00,70.6,60.0,29.99,SW,221,0.0,0.0,68,0.00,,,0.00,weatherlink.com 1.10,2013-09-19 21:53:00,
2013-09-19 18:08:00,67.9,59.0,29.99,SW,221,0.0,0.0,72,0.00,,,0.00,weatherlink.com 1.10,2013-09-19 22:08:00,
2013-09-19 18:23:00,65.9,58.0,30.00,SW,221,0.0,0.0,75,0.00,,,0.00,weatherlink.com 1.10,2013-09-19 22:23:00,
2013-09-19 18:38:00,64.2,57.0,30.00,SW,221,0.0,0.0,77,0.00,,,0.00,weatherlink.com 1.10,2013-09-19 22:38:00,
2013-09-19 18:53:00,62.8,56.0,30.00,SW,221,0.0,0.0,79,0.00,,,0.00,weatherlink.com 1.10,2013-09-19 22:53:00,
2013-09-19 19:08:00,61.3,55.0,30.00,SW,221,0.0,0.0,81,0.00,,,0.00,weatherlink.com 1.10,2013-09-19 23:08:00,
2013-09-19 19:23:00,60.0,55.0,30.00,SW,221,0.0,0.0,82,0.00,,,0.00,weatherlink.com 1.10,2013-09-19 23:23:00,
2013-09-19 19:38:00,58.9,54.0,30.01,SW,221,0.0,0.0,83,0.00,,,0.00,weatherlink.com 1.10,2013-09-19 23:38:00,
2013-09-19 19:53:00,58.0,53.0,30.02,SW,221,0.0,0.0,84,0.00,,,0.00,weatherlink.com 1.10,2013-09-19 23:53:00,
2013-09-19 20:08:00,58.0,54.0,30.01,SW,221,0.0,0.0,86,0.00,,,0.00,weatherlink.com 1.10,2013-09-20 00:08:00,
2013-09-19 20:23:00,57.8,53.0,30.02,SW,221,0.0,1.0,85,0.00,,,0.00,weatherlink.com 1.10,2013-09-20 00:23:00,
2013-09-19 20:38:00,57.3,53.0,30.02,SW,221,0.0,0.0,86,0.00,,,0.00,weatherlink.com 1.10,2013-09-20 00:38:00,
2013-09-19 20:53:00,56.5,52.0,30.02,SW,221,0.0,0.0,86,0.00,,,0.00,weatherlink.com 1.10,2013-09-20 00:53:00,
2013-09-19 21:08:00,55.8,52.0,30.02,NE,41,0.0,0.0,86,0.00,,,0.00,weatherlink.com 1.10,2013-09-20 01:08:00,
2013-09-19 21:23:00,55.2,51.0,30.03,NE,41,0.0,0.0,86,0.00,,,0.00,weatherlink.com 1.10,2013-09-20 01:23:00,
2013-09-19 21:38:00,54.4,50.0,30.03,NE,41,0.0,0.0,86,0.00,,,0.00,weatherlink.com 1.10,2013-09-20 01:38:00,
2013-09-19 21:53:00,53.7,50.0,30.04,NE,41,0.0,0.0,87,0.00,,,0.00,weatherlink.com 1.10,2013-09-20 01:53:00,
2013-09-19 22:08:00,53.0,49.0,30.04,NE,41,0.0,0.0,87,0.00,,,0.00,weatherlink.com 1.10,2013-09-20 02:08:00,
2013-09-19 22:23:00,52.4,49.0,30.04,NE,41,0.0,0.0,87,0.00,,,0.00,weatherlink.com 1.10,2013-09-20 02:23:00,
2013-09-19 22:39:00,51.9,48.0,30.03,NE,40,0.0,0.0,87,0.00,,,0.00,weatherlink.com 1.10,2013-09-20 02:39:00,
2013-09-19 22:54:00,51.7,48.0,30.03,NE,41,0.0,0.0,87,0.00,,,0.00,weatherlink.com 1.10,2013-09-20 02:54:00,
2013-09-19 23:09:00,51.4,48.0,30.04,NE,41,0.0,0.0,87,0.00,,,0.00,weatherlink.com 1.10,2013-09-20 03:09:00,
2013-09-19 23:24:00,50.8,47.0,30.03,NE,40,0.0,0.0,87,0.00,,,0.00,weatherlink.com 1.10,2013-09-20 03:24:00,
2013-09-19 23:39:00,50.2,47.0,30.03,NE,40,0.0,0.0,87,0.00,,,0.00,weatherlink.com 1.10,2013-09-20 03:39:00,
2013-09-19 23:54:00,49.6,46.0,30.04,NE,41,0.0,0.0,87,0.00,,,0.00,weatherlink.com 1.10,2013-09-20 03:54:00,